createdAt,value
2019-03-27T00:00:09.347Z,305.66
2019-03-27T00:01:09.647Z,305.85
2019-03-27T00:02:10.000Z,305.51
2019-03-27T00:03:10.349Z,305.50
2019-03-27T00:04:15.796Z,305.28
2019-03-27T00:05:11.138Z,305.39
2019-03-27T00:06:11.350Z,305.46
2019-03-27T00:07:11.652Z,305.82
2019-03-27T00:08:11.999Z,305.61
2019-03-27T00:09:17.889Z,305.47
2019-03-27T00:10:12.692Z,305.09
2019-03-27T00:11:15.878Z,305.42
2019-03-27T00:12:13.283Z,305.35
2019-03-27T00:13:14.384Z,305.31
2019-03-27T00:14:15.077Z,305.60
2019-03-27T00:15:14.349Z,305.36
2019-03-27T00:16:35.716Z,305.44
2019-03-27T00:17:14.946Z,305.47
2019-03-27T00:18:15.292Z,305.57
2019-03-27T00:19:15.602Z,305.53
2019-03-27T00:20:15.947Z,305.46
2019-03-27T00:21:16.260Z,305.35
2019-03-27T00:22:16.714Z,305.53
2019-03-27T00:23:16.968Z,305.63
2019-03-27T00:24:17.336Z,305.42
2019-03-27T00:25:17.835Z,305.53
2019-03-27T00:26:33.874Z,305.66
2019-03-27T00:27:18.282Z,305.47
2019-03-27T00:28:18.636Z,305.60
2019-03-27T00:29:18.990Z,305.55
2019-03-27T00:30:19.377Z,305.73
2019-03-27T00:31:19.669Z,305.29
2019-03-27T00:32:19.979Z,305.93
2019-03-27T00:33:20.303Z,305.22
2019-03-27T00:34:28.314Z,305.23
2019-03-27T00:35:20.974Z,305.27
2019-03-27T00:36:21.306Z,305.65
2019-03-27T00:37:21.658Z,305.46
2019-03-27T00:38:22.028Z,305.15
2019-03-27T00:39:22.377Z,305.26
2019-03-27T00:40:22.591Z,305.00
2019-03-27T00:41:22.939Z,305.84
2019-03-27T00:42:23.257Z,305.42
2019-03-27T00:43:23.604Z,305.48
2019-03-27T00:44:28.779Z,305.49
2019-03-27T00:45:26.922Z,305.45
2019-03-27T00:46:24.628Z,305.99
2019-03-27T00:47:24.968Z,306.13
2019-03-27T00:48:25.257Z,305.78
2019-03-27T00:49:25.596Z,305.46
2019-03-27T00:50:25.893Z,305.57
2019-03-27T00:51:26.243Z,305.33
2019-03-27T00:52:26.558Z,305.81
2019-03-27T00:53:26.910Z,305.53
2019-03-27T00:54:27.250Z,305.62
2019-03-27T00:55:27.679Z,305.58
2019-03-27T00:56:27.919Z,305.81
2019-03-27T00:57:28.248Z,305.41
2019-03-27T00:58:28.582Z,305.47
2019-03-27T00:59:28.939Z,305.37
2019-03-27T01:00:29.221Z,305.77
2019-03-27T01:01:29.552Z,305.42
2019-03-27T01:02:29.879Z,305.00
2019-03-27T01:03:30.343Z,305.98
2019-03-27T01:04:30.565Z,305.01
2019-03-27T01:05:30.867Z,305.31
2019-03-27T01:06:31.197Z,305.69
2019-03-27T01:07:31.529Z,305.86
2019-03-27T01:08:31.873Z,305.76
2019-03-27T01:09:32.235Z,305.70
2019-03-27T01:10:40.880Z,305.70
2019-03-27T01:11:33.893Z,305.66
2019-03-27T01:12:33.144Z,305.64
2019-03-27T01:13:33.511Z,306.03
2019-03-27T01:14:33.867Z,305.83
2019-03-27T01:15:39.569Z,305.81
2019-03-27T01:16:35.507Z,306.06
2019-03-27T01:17:34.819Z,305.77
2019-03-27T01:18:35.143Z,305.47
2019-03-27T01:19:35.549Z,305.53
2019-03-27T01:20:35.808Z,305.42
2019-03-27T01:21:36.180Z,306.07
2019-03-27T01:22:36.476Z,305.82
2019-03-27T01:23:36.795Z,305.91
2019-03-27T01:24:37.122Z,305.56
2019-03-27T01:25:37.460Z,305.74
2019-03-27T01:26:37.828Z,305.61
2019-03-27T01:27:38.194Z,305.32
2019-03-27T01:28:38.536Z,305.73
2019-03-27T01:29:38.812Z,305.90
2019-03-27T01:30:39.165Z,305.54
2019-03-27T01:31:39.503Z,306.06
2019-03-27T01:32:39.824Z,305.76
2019-03-27T01:33:40.145Z,305.57
2019-03-27T01:34:40.494Z,305.45
2019-03-27T01:35:40.828Z,305.82
2019-03-27T01:36:41.310Z,305.74
2019-03-27T01:37:41.500Z,305.42
2019-03-27T01:38:41.815Z,306.00
2019-03-27T01:39:42.154Z,305.62
2019-03-27T01:40:42.479Z,305.12
2019-03-27T01:41:42.850Z,305.77
2019-03-27T01:42:43.173Z,305.80
2019-03-27T01:43:43.495Z,305.67
2019-03-27T01:44:43.868Z,305.70
2019-03-27T01:46:58.277Z,305.12
2019-03-27T01:47:58.583Z,306.56
2019-03-27T01:48:58.915Z,306.31
2019-03-27T01:49:59.246Z,306.37
2019-03-27T01:50:59.565Z,306.37
2019-03-27T01:51:59.899Z,306.35
2019-03-27T01:53:00.236Z,306.05
2019-03-27T01:54:00.705Z,306.35
2019-03-27T01:55:00.890Z,306.57
2019-03-27T01:56:01.226Z,306.42
2019-03-27T01:57:01.569Z,305.97
2019-03-27T01:58:01.897Z,306.48
2019-03-27T01:59:02.228Z,306.31
2019-03-27T02:00:02.571Z,306.38
2019-03-27T02:01:02.920Z,306.90
2019-03-27T02:02:03.271Z,306.49
2019-03-27T02:03:03.562Z,306.05
2019-03-27T02:04:03.869Z,306.63
2019-03-27T02:05:04.479Z,306.27
2019-03-27T02:06:04.531Z,306.33
2019-03-27T02:07:04.898Z,306.69
2019-03-27T02:08:05.187Z,306.76
2019-03-27T02:09:05.521Z,306.30
2019-03-27T02:10:05.935Z,306.94
2019-03-27T02:11:06.194Z,306.92
2019-03-27T02:12:06.554Z,306.64
2019-03-27T02:13:06.851Z,306.42
2019-03-27T02:14:07.163Z,306.62
2019-03-27T02:15:07.528Z,306.76
2019-03-27T02:16:07.848Z,306.88
2019-03-27T02:17:08.210Z,306.70
2019-03-27T02:18:08.536Z,306.43
2019-03-27T02:19:08.918Z,306.44
2019-03-27T02:20:09.178Z,306.86
2019-03-27T02:21:09.499Z,306.14
2019-03-27T02:22:09.853Z,306.88
2019-03-27T02:23:10.166Z,306.88
2019-03-27T02:24:10.464Z,306.58
2019-03-27T02:25:10.809Z,306.53
2019-03-27T02:26:11.137Z,306.96
2019-03-27T02:27:11.631Z,306.30
2019-03-27T02:28:11.826Z,306.57
2019-03-27T02:29:12.127Z,305.99
2019-03-27T02:30:12.490Z,306.19
2019-03-27T02:31:12.838Z,306.14
2019-03-27T02:32:13.142Z,307.04
2019-03-27T02:33:13.470Z,306.67
2019-03-27T02:34:13.794Z,306.70
2019-03-27T02:35:14.186Z,306.77
2019-03-27T02:36:14.448Z,306.30
2019-03-27T02:37:14.777Z,307.01
2019-03-27T02:38:15.119Z,306.59
2019-03-27T02:39:15.471Z,306.34
2019-03-27T02:40:15.789Z,306.09
2019-03-27T02:41:16.117Z,306.52
2019-03-27T02:42:16.425Z,306.75
2019-03-27T02:43:16.827Z,306.36
2019-03-27T02:44:17.074Z,306.47
2019-03-27T02:45:17.602Z,306.43
2019-03-27T02:46:24.596Z,306.11
2019-03-27T02:47:19.057Z,306.37
2019-03-27T02:48:18.425Z,306.92
2019-03-27T02:49:18.742Z,306.33
2019-03-27T02:50:19.088Z,306.42
2019-03-27T02:51:19.454Z,307.12
2019-03-27T02:52:19.783Z,306.57
2019-03-27T02:53:20.083Z,306.11
2019-03-27T02:54:20.389Z,306.58
2019-03-27T02:55:20.720Z,306.50
2019-03-27T02:56:21.073Z,306.57
2019-03-27T02:57:21.400Z,306.90
2019-03-27T02:58:21.729Z,306.62
2019-03-27T02:59:22.044Z,306.20
2019-03-27T03:00:22.514Z,306.73
2019-03-27T03:01:22.754Z,306.61
2019-03-27T03:02:23.034Z,306.80
2019-03-27T03:03:23.402Z,306.80
2019-03-27T03:04:23.735Z,306.55
2019-03-27T03:05:24.068Z,306.06
2019-03-27T03:06:24.453Z,307.25
2019-03-27T03:07:24.743Z,306.68
2019-03-27T03:08:25.194Z,306.55
2019-03-27T03:09:25.381Z,305.85
2019-03-27T03:10:25.739Z,306.43
2019-03-27T03:11:26.102Z,306.80
2019-03-27T03:12:26.414Z,306.68
2019-03-27T03:13:26.749Z,306.46
2019-03-27T03:14:27.044Z,306.60
2019-03-27T03:15:27.378Z,306.71
2019-03-27T03:16:41.352Z,307.14
2019-03-27T03:17:29.035Z,307.02
2019-03-27T03:18:28.383Z,306.89
2019-03-27T03:19:28.696Z,306.35
2019-03-27T03:20:29.014Z,306.34
2019-03-27T03:21:29.678Z,306.88
2019-03-27T03:22:29.730Z,306.85
2019-03-27T03:23:30.062Z,306.99
2019-03-27T03:24:30.398Z,306.92
2019-03-27T03:25:30.752Z,306.59
2019-03-27T03:26:31.074Z,306.84
2019-03-27T03:27:31.382Z,306.33
2019-03-27T03:28:31.747Z,306.77
2019-03-27T03:29:32.035Z,306.40
2019-03-27T03:30:32.370Z,306.58
2019-03-27T03:31:32.744Z,307.00
2019-03-27T03:32:33.017Z,306.72
2019-03-27T03:33:33.518Z,306.55
2019-03-27T03:34:33.699Z,307.01
2019-03-27T03:35:34.032Z,306.31
2019-03-27T03:36:34.363Z,306.61
2019-03-27T03:37:34.702Z,307.25
2019-03-27T03:38:35.063Z,306.56
2019-03-27T03:39:35.367Z,306.87
2019-03-27T03:40:35.699Z,306.87
2019-03-27T03:41:36.357Z,306.09
2019-03-27T03:42:36.336Z,306.83
2019-03-27T03:43:36.697Z,306.72
2019-03-27T03:44:37.009Z,306.55
2019-03-27T03:45:37.338Z,306.80
2019-03-27T03:46:37.691Z,306.83
2019-03-27T03:47:38.007Z,306.64
2019-03-27T03:48:38.335Z,306.50
2019-03-27T03:49:38.759Z,306.92
2019-03-27T03:50:38.986Z,306.66
2019-03-27T03:51:39.342Z,307.15
2019-03-27T03:52:39.676Z,306.89
2019-03-27T03:53:40.008Z,306.83
2019-03-27T03:54:40.292Z,306.63
2019-03-27T03:55:40.641Z,306.72
2019-03-27T03:56:41.002Z,306.50
2019-03-27T03:57:41.346Z,306.82
2019-03-27T03:58:41.673Z,307.02
2019-03-27T03:59:41.947Z,306.45
2019-03-27T04:00:42.309Z,306.72
2019-03-27T04:01:42.650Z,306.19
2019-03-27T04:02:42.973Z,306.74
2019-03-27T04:03:43.302Z,306.58
2019-03-27T04:04:43.617Z,306.85
2019-03-27T04:05:43.967Z,306.40
2019-03-27T04:06:44.440Z,306.48
2019-03-27T04:07:44.628Z,306.77
2019-03-27T04:08:44.950Z,306.68
2019-03-27T04:09:45.298Z,306.92
2019-03-27T04:10:45.633Z,306.77
2019-03-27T04:11:45.972Z,306.52
2019-03-27T04:12:46.306Z,306.95
2019-03-27T04:13:46.619Z,306.89
2019-03-27T04:14:47.191Z,306.81
2019-03-27T04:15:47.264Z,306.74
2019-03-27T04:16:47.645Z,306.56
2019-03-27T04:17:47.949Z,306.65
2019-03-27T04:18:48.269Z,306.60
2019-03-27T04:19:48.626Z,306.73
2019-03-27T04:20:48.956Z,306.01
2019-03-27T04:21:49.259Z,306.61
2019-03-27T04:22:49.707Z,307.22
2019-03-27T04:23:49.911Z,306.60
2019-03-27T04:24:50.296Z,306.20
2019-03-27T04:26:09.286Z,307.02
2019-03-27T04:26:51.946Z,306.57
2019-03-27T04:27:51.233Z,306.76
2019-03-27T04:28:51.579Z,306.98
2019-03-27T04:29:51.956Z,306.47
2019-03-27T04:30:52.276Z,306.91
2019-03-27T04:31:52.583Z,307.28
2019-03-27T04:32:52.910Z,306.84
2019-03-27T04:33:53.212Z,306.70
2019-03-27T04:34:53.846Z,307.23
2019-03-27T04:35:53.904Z,306.71
2019-03-27T04:36:54.244Z,306.68
2019-03-27T04:37:54.556Z,306.73
2019-03-27T04:38:54.886Z,306.93
2019-03-27T04:39:55.373Z,306.57
2019-03-27T04:40:55.558Z,307.02
2019-03-27T04:41:55.907Z,307.10
2019-03-27T04:42:56.219Z,307.03
2019-03-27T04:43:56.528Z,306.71
2019-03-27T04:44:56.908Z,307.04
2019-03-27T04:45:57.232Z,306.62
2019-03-27T04:46:57.581Z,306.84
2019-03-27T04:47:58.079Z,306.67
2019-03-27T04:48:58.198Z,306.77
2019-03-27T04:49:58.558Z,306.96
2019-03-27T04:50:58.884Z,306.67
2019-03-27T04:51:59.238Z,306.78
2019-03-27T04:52:59.561Z,306.67
2019-03-27T04:53:59.881Z,306.37
2019-03-27T04:55:00.391Z,306.65
2019-03-27T04:56:00.815Z,306.58
2019-03-27T04:57:00.870Z,306.35
2019-03-27T04:58:01.182Z,306.52
2019-03-27T04:59:01.506Z,306.53
2019-03-27T05:00:01.857Z,305.85
2019-03-27T05:01:02.155Z,306.84
2019-03-27T05:02:09.027Z,306.46
2019-03-27T05:03:02.853Z,306.63
2019-03-27T05:04:03.197Z,307.12
2019-03-27T05:05:03.500Z,306.32
2019-03-27T05:06:03.823Z,306.63
2019-03-27T05:07:04.174Z,306.78
2019-03-27T05:08:04.466Z,306.83
2019-03-27T05:09:04.803Z,306.59
2019-03-27T05:10:05.154Z,306.48
2019-03-27T05:11:05.486Z,306.94
2019-03-27T05:12:05.863Z,306.36
2019-03-27T05:13:06.144Z,306.94
2019-03-27T05:14:06.461Z,306.69
2019-03-27T05:15:06.802Z,307.08
2019-03-27T05:16:07.118Z,306.69
2019-03-27T05:17:07.685Z,306.83
2019-03-27T05:18:07.788Z,306.90
2019-03-27T05:19:08.093Z,306.75
2019-03-27T05:20:08.464Z,306.82
2019-03-27T05:21:08.909Z,306.53
2019-03-27T05:22:09.207Z,306.14
2019-03-27T05:23:09.557Z,306.50
2019-03-27T05:24:09.849Z,306.71
2019-03-27T05:25:10.216Z,306.67
2019-03-27T05:26:10.535Z,306.07
2019-03-27T05:27:10.856Z,306.80
2019-03-27T05:28:11.217Z,306.72
2019-03-27T05:29:11.656Z,306.30
2019-03-27T05:30:11.896Z,307.09
2019-03-27T05:31:12.236Z,306.43
2019-03-27T05:32:12.548Z,306.50
2019-03-27T05:33:12.906Z,306.60
2019-03-27T05:34:13.238Z,306.47
2019-03-27T05:35:13.597Z,306.48
2019-03-27T05:36:13.924Z,306.51
2019-03-27T05:37:14.274Z,306.71
2019-03-27T05:38:14.596Z,306.63
2019-03-27T05:39:14.951Z,306.50
2019-03-27T05:40:15.284Z,306.56
2019-03-27T05:41:15.620Z,306.81
2019-03-27T05:42:15.980Z,307.00
2019-03-27T05:43:16.307Z,306.72
2019-03-27T05:44:16.634Z,306.71
2019-03-27T05:45:17.021Z,306.90
2019-03-27T05:46:17.273Z,306.84
2019-03-27T05:47:17.652Z,306.76
2019-03-27T05:48:17.972Z,306.84
2019-03-27T05:49:18.296Z,306.84
2019-03-27T05:50:18.647Z,306.62
2019-03-27T05:51:18.949Z,306.82
2019-03-27T05:52:19.304Z,306.34
2019-03-27T05:53:19.675Z,306.73
2019-03-27T05:54:20.016Z,306.68
2019-03-27T05:55:20.265Z,306.83
2019-03-27T05:56:20.564Z,307.16
2019-03-27T05:57:20.911Z,306.51
2019-03-27T05:58:21.249Z,307.13
2019-03-27T05:59:21.591Z,306.49
2019-03-27T06:00:21.912Z,307.05
2019-03-27T06:01:28.654Z,307.20
2019-03-27T06:02:23.744Z,306.77
2019-03-27T06:03:22.982Z,306.50
2019-03-27T06:04:23.311Z,306.65
2019-03-27T06:05:23.642Z,306.43
2019-03-27T06:06:23.981Z,306.78
2019-03-27T06:07:24.335Z,306.81
2019-03-27T06:08:24.688Z,306.71
2019-03-27T06:09:25.017Z,306.59
2019-03-27T06:10:25.412Z,306.10
2019-03-27T06:11:25.664Z,306.74
2019-03-27T06:12:26.021Z,306.76
2019-03-27T06:13:26.375Z,306.53
2019-03-27T06:14:26.990Z,306.52
2019-03-27T06:15:27.055Z,306.88
2019-03-27T06:16:27.356Z,306.50
2019-03-27T06:17:27.693Z,306.47
2019-03-27T06:18:28.104Z,306.67
2019-03-27T06:19:28.653Z,306.66
2019-03-27T06:20:28.718Z,306.96
2019-03-27T06:21:29.046Z,307.38
2019-03-27T06:22:29.354Z,306.51
2019-03-27T06:23:29.720Z,306.87
2019-03-27T06:24:30.084Z,306.96
2019-03-27T06:25:30.421Z,306.99
2019-03-27T06:26:30.758Z,306.43
2019-03-27T06:27:31.090Z,306.53
2019-03-27T06:28:31.429Z,306.48
2019-03-27T06:29:31.776Z,306.82
2019-03-27T06:30:32.083Z,306.81
2019-03-27T06:31:32.416Z,306.68
2019-03-27T06:32:32.752Z,306.69
2019-03-27T06:33:33.092Z,306.54
2019-03-27T06:34:33.480Z,306.64
2019-03-27T06:35:33.892Z,306.32
2019-03-27T06:36:34.131Z,306.15
2019-03-27T06:37:34.452Z,307.14
2019-03-27T06:38:34.808Z,306.85
2019-03-27T06:39:35.173Z,306.83
2019-03-27T06:40:35.471Z,306.82
2019-03-27T06:41:35.826Z,306.63
2019-03-27T06:42:36.168Z,306.86
2019-03-27T06:43:36.599Z,307.03
2019-03-27T06:44:36.864Z,307.03
2019-03-27T06:45:37.171Z,306.53
2019-03-27T06:46:37.525Z,306.67
2019-03-27T06:47:37.844Z,306.79
2019-03-27T06:48:38.181Z,306.55
2019-03-27T06:49:38.533Z,306.43
2019-03-27T06:50:38.880Z,306.87
2019-03-27T06:51:40.313Z,306.42
2019-03-27T06:52:39.528Z,306.85
2019-03-27T06:53:39.888Z,306.81
2019-03-27T06:54:40.492Z,306.90
2019-03-27T06:55:40.550Z,306.74
2019-03-27T06:56:40.898Z,306.70
2019-03-27T06:57:41.219Z,306.68
2019-03-27T06:58:53.549Z,307.01
2019-03-27T06:59:42.945Z,306.79
2019-03-27T07:00:42.439Z,306.76
2019-03-27T07:01:42.818Z,306.89
2019-03-27T07:02:43.145Z,306.51
2019-03-27T07:03:43.502Z,306.48
2019-03-27T07:04:43.833Z,307.16
2019-03-27T07:05:44.142Z,306.92
2019-03-27T07:06:44.494Z,306.90
2019-03-27T07:07:44.864Z,306.67
2019-03-27T07:08:45.268Z,306.15
2019-03-27T07:09:45.527Z,306.80
2019-03-27T07:10:45.832Z,306.58
2019-03-27T07:11:46.193Z,306.76
2019-03-27T07:12:46.508Z,306.37
2019-03-27T07:13:46.862Z,306.99
2019-03-27T07:14:47.211Z,306.69
2019-03-27T07:15:47.520Z,306.62
2019-03-27T07:16:47.975Z,306.88
2019-03-27T07:17:48.212Z,307.17
2019-03-27T07:18:48.534Z,306.91
2019-03-27T07:19:48.859Z,307.40
2019-03-27T07:20:49.177Z,307.33
2019-03-27T07:21:49.538Z,306.56
2019-03-27T07:22:49.886Z,307.10
2019-03-27T07:23:50.224Z,307.13
2019-03-27T07:24:50.591Z,306.23
2019-03-27T07:25:50.875Z,306.30
2019-03-27T07:26:51.211Z,307.16
2019-03-27T07:27:51.542Z,306.64
2019-03-27T07:28:51.911Z,306.62
2019-03-27T07:29:52.216Z,306.59
2019-03-27T07:30:52.562Z,307.06
2019-03-27T07:31:52.906Z,306.98
2019-03-27T07:32:53.268Z,306.58
2019-03-27T07:33:53.543Z,306.96
2019-03-27T07:34:53.886Z,306.58
2019-03-27T07:35:54.574Z,306.98
2019-03-27T07:36:56.028Z,307.12
2019-03-27T07:37:54.885Z,306.90
2019-03-27T07:38:55.230Z,307.05
2019-03-27T07:39:55.592Z,306.70
2019-03-27T07:40:55.963Z,306.73
2019-03-27T07:41:56.350Z,307.07
2019-03-27T07:42:56.606Z,306.87
2019-03-27T07:43:56.960Z,306.70
2019-03-27T07:44:57.323Z,307.17
2019-03-27T07:45:57.668Z,307.10
2019-03-27T07:46:58.019Z,306.47
2019-03-27T07:47:58.332Z,306.80
2019-03-27T07:48:58.661Z,306.94
2019-03-27T07:49:59.092Z,306.99
2019-03-27T07:50:59.338Z,307.06
2019-03-27T07:51:59.699Z,306.92
2019-03-27T07:52:59.997Z,307.18
2019-03-27T07:54:00.328Z,307.39
2019-03-27T07:55:00.696Z,306.70
2019-03-27T07:56:01.030Z,307.49
2019-03-27T07:57:01.371Z,306.89
2019-03-27T07:58:01.795Z,306.78
2019-03-27T07:59:02.016Z,306.93
2019-03-27T08:00:02.387Z,306.67
2019-03-27T08:01:02.703Z,307.03
2019-03-27T08:02:03.055Z,306.44
2019-03-27T08:03:03.397Z,306.18
2019-03-27T08:04:03.698Z,305.77
2019-03-27T08:05:04.072Z,306.77
2019-03-27T08:06:04.439Z,306.53
2019-03-27T08:07:04.734Z,306.71
2019-03-27T08:08:05.081Z,306.80
2019-03-27T08:09:05.396Z,306.82
2019-03-27T08:10:05.736Z,306.83
2019-03-27T08:11:06.074Z,306.87
2019-03-27T08:12:06.448Z,307.26
2019-03-27T08:13:06.808Z,306.33
2019-03-27T08:14:07.128Z,306.40
2019-03-27T08:15:07.425Z,306.56
2019-03-27T08:16:07.754Z,306.64
2019-03-27T08:17:08.119Z,306.58
2019-03-27T08:18:08.458Z,306.05
2019-03-27T08:19:08.774Z,306.66
2019-03-27T08:20:09.129Z,306.74
2019-03-27T08:21:09.446Z,305.89
2019-03-27T08:22:09.820Z,306.66
2019-03-27T08:23:10.214Z,307.08
2019-03-27T08:24:10.454Z,306.50
2019-03-27T08:25:10.809Z,306.81
2019-03-27T08:26:11.111Z,306.79
2019-03-27T08:27:14.365Z,306.41
2019-03-27T08:28:11.799Z,306.32
2019-03-27T08:29:12.137Z,306.78
2019-03-27T08:30:12.494Z,306.28
2019-03-27T08:31:12.928Z,306.79
2019-03-27T08:32:13.168Z,306.15
2019-03-27T08:33:13.487Z,306.38
2019-03-27T08:34:13.829Z,306.35
2019-03-27T08:35:14.174Z,306.37
2019-03-27T08:36:14.478Z,306.85
2019-03-27T08:37:14.832Z,306.38
2019-03-27T08:38:15.251Z,306.64
2019-03-27T08:39:15.574Z,306.30
2019-03-27T08:40:16.088Z,306.06
2019-03-27T08:41:16.174Z,306.12
2019-03-27T08:42:16.509Z,306.10
2019-03-27T08:43:21.310Z,306.43
2019-03-27T08:44:18.210Z,306.51
2019-03-27T08:45:17.579Z,306.72
2019-03-27T08:46:17.890Z,306.61
2019-03-27T08:47:18.279Z,306.81
2019-03-27T08:48:28.163Z,306.36
2019-03-27T08:49:22.276Z,306.88
2019-03-27T08:50:19.251Z,306.38
2019-03-27T08:51:19.585Z,306.29
2019-03-27T08:55:02.355Z,305.01
2019-03-27T09:00:11.284Z,304.68
2019-03-27T09:01:11.345Z,306.45
2019-03-27T09:16:31.860Z,305.36
2019-03-27T09:17:32.216Z,306.36
2019-03-27T09:18:32.581Z,306.55
2019-03-27T09:19:35.938Z,305.87
2019-03-27T09:20:33.204Z,306.60
2019-03-27T09:21:33.524Z,305.88
2019-03-27T09:22:33.892Z,306.29
2019-03-27T09:23:34.194Z,306.23
2019-03-27T09:24:34.521Z,306.07
2019-03-27T09:25:34.889Z,306.14
2019-03-27T09:26:35.242Z,305.86
2019-03-27T09:27:35.553Z,306.46
2019-03-27T09:28:35.869Z,305.99
2019-03-27T09:29:36.217Z,306.45
2019-03-27T09:30:36.560Z,306.34
2019-03-27T09:31:44.615Z,306.89
2019-03-27T09:32:38.260Z,306.45
2019-03-27T09:33:37.569Z,306.53
2019-03-27T09:34:37.937Z,306.68
2019-03-27T09:35:38.332Z,306.67
2019-03-27T09:36:38.574Z,307.07
2019-03-27T09:37:38.957Z,306.55
2019-03-27T09:38:39.256Z,305.76
2019-03-27T09:39:39.582Z,306.12
2019-03-27T09:40:39.926Z,305.46
2019-03-27T09:41:40.263Z,305.35
2019-03-27T09:42:40.622Z,305.56
2019-03-27T09:43:41.020Z,305.78
2019-03-27T09:44:41.240Z,306.29
2019-03-27T09:45:41.622Z,305.78
2019-03-27T09:46:41.948Z,305.93
2019-03-27T09:47:42.314Z,306.02
2019-03-27T09:48:42.626Z,305.50
2019-03-27T09:49:49.569Z,305.52
2019-03-27T09:50:44.304Z,305.70
2019-03-27T09:51:43.699Z,305.76
2019-03-27T09:52:44.023Z,305.83
2019-03-27T09:53:44.297Z,305.15
2019-03-27T09:54:44.633Z,305.91
2019-03-27T09:55:45.037Z,306.08
2019-03-27T09:56:45.293Z,305.67
2019-03-27T09:57:45.684Z,305.54
2019-03-27T09:58:45.979Z,306.82
2019-03-27T09:59:46.372Z,305.56
2019-03-27T10:00:46.651Z,306.77
2019-03-27T10:01:46.958Z,305.62
2019-03-27T10:02:47.341Z,305.74
2019-03-27T10:03:47.642Z,305.79
2019-03-27T10:04:47.990Z,305.65
2019-03-27T10:05:48.342Z,305.27
2019-03-27T10:06:48.658Z,306.16
2019-03-27T10:07:49.034Z,305.36
2019-03-27T10:08:49.412Z,305.30
2019-03-27T10:09:50.350Z,305.44
2019-03-27T10:10:50.029Z,305.26
2019-03-27T10:11:50.349Z,305.46
2019-03-27T10:12:50.713Z,305.15
2019-03-27T10:13:51.044Z,305.49
2019-03-27T10:14:51.385Z,305.23
2019-03-27T10:15:51.758Z,305.96
2019-03-27T10:16:52.135Z,305.19
2019-03-27T10:17:52.423Z,305.53
2019-03-27T10:18:52.753Z,304.87
2019-03-27T10:20:02.898Z,305.35
2019-03-27T10:20:54.438Z,305.32
2019-03-27T10:21:53.759Z,305.45
2019-03-27T10:22:54.113Z,305.48
2019-03-27T10:23:54.434Z,305.33
2019-03-27T10:24:54.883Z,305.38
2019-03-27T10:25:55.129Z,305.37
2019-03-27T10:26:55.438Z,305.75
2019-03-27T10:27:55.793Z,306.08
2019-03-27T10:28:56.114Z,306.63
2019-03-27T10:29:56.686Z,306.44
2019-03-27T10:30:56.801Z,305.98
2019-03-27T10:31:57.121Z,306.19
2019-03-27T10:32:57.542Z,306.49
2019-03-27T10:33:57.776Z,306.80
2019-03-27T10:34:58.103Z,306.22
2019-03-27T10:35:58.470Z,306.04
2019-03-27T10:36:58.786Z,306.16
2019-03-27T10:37:59.147Z,306.19
2019-03-27T10:38:59.477Z,306.29
2019-03-27T10:39:59.801Z,306.31
2019-03-27T10:41:00.180Z,305.90
2019-03-27T10:42:00.527Z,305.99
2019-03-27T10:43:00.843Z,305.83
2019-03-27T10:44:01.173Z,305.65
2019-03-27T10:45:01.486Z,305.85
2019-03-27T10:46:01.829Z,305.16
2019-03-27T10:47:02.168Z,305.02
2019-03-27T10:48:02.537Z,305.75
2019-03-27T10:49:02.871Z,305.74
2019-03-27T10:50:16.324Z,305.42
2019-03-27T10:51:04.528Z,305.55
2019-03-27T10:52:03.847Z,305.63
2019-03-27T10:53:04.209Z,306.00
2019-03-27T10:54:04.536Z,305.95
2019-03-27T10:55:04.872Z,305.60
2019-03-27T10:56:05.195Z,305.84
2019-03-27T10:57:05.522Z,305.84
2019-03-27T10:58:06.005Z,305.50
2019-03-27T10:59:06.222Z,305.88
2019-03-27T11:00:06.661Z,305.34
2019-03-27T11:01:07.191Z,305.52
2019-03-27T11:03:07.296Z,305.41
2019-03-27T11:04:07.653Z,306.63
2019-03-27T11:05:07.961Z,306.45
2019-03-27T11:06:08.305Z,306.17
2019-03-27T11:07:08.799Z,306.30
2019-03-27T11:08:11.225Z,306.74
2019-03-27T11:09:09.346Z,306.89
2019-03-27T11:10:09.643Z,306.40
2019-03-27T11:11:09.989Z,306.67
2019-03-27T11:12:10.340Z,306.40
2019-03-27T11:13:10.673Z,306.66
2019-03-27T11:14:11.030Z,306.48
2019-03-27T11:15:11.377Z,306.29
2019-03-27T11:16:11.660Z,306.23
2019-03-27T11:17:12.017Z,306.62
2019-03-27T11:18:12.336Z,306.58
2019-03-27T11:19:12.702Z,306.67
2019-03-27T11:20:13.009Z,306.35
2019-03-27T11:21:13.335Z,306.02
2019-03-27T11:22:13.699Z,306.49
2019-03-27T11:23:14.087Z,306.50
2019-03-27T11:24:14.372Z,306.69
2019-03-27T11:25:14.674Z,306.34
2019-03-27T11:26:14.991Z,306.57
2019-03-27T11:27:15.370Z,306.45
2019-03-27T11:28:15.709Z,306.60
2019-03-27T11:29:16.076Z,306.00
2019-03-27T11:30:16.392Z,306.18
2019-03-27T11:31:16.770Z,306.35
2019-03-27T11:32:17.100Z,305.90
2019-03-27T11:33:17.391Z,306.39
2019-03-27T11:34:17.744Z,305.77
2019-03-27T11:35:18.063Z,306.33
2019-03-27T11:36:18.410Z,305.13
2019-03-27T11:37:18.746Z,304.50
2019-03-27T11:38:19.075Z,305.79
2019-03-27T11:39:19.440Z,305.08
2019-03-27T11:40:19.928Z,305.69
2019-03-27T11:41:20.076Z,305.85
2019-03-27T11:42:20.422Z,305.66
2019-03-27T11:43:20.757Z,305.72
2019-03-27T11:44:21.156Z,305.65
2019-03-27T11:45:21.454Z,305.90
2019-03-27T11:46:21.791Z,306.83
2019-03-27T11:47:22.147Z,307.20
2019-03-27T11:48:22.554Z,306.27
2019-03-27T11:49:22.820Z,306.47
2019-03-27T11:50:23.145Z,306.80
2019-03-27T11:51:23.461Z,306.37
2019-03-27T11:52:23.818Z,306.73
2019-03-27T11:53:24.120Z,307.25
2019-03-27T11:54:24.497Z,307.22
2019-03-27T11:55:24.826Z,306.70
2019-03-27T11:56:25.170Z,306.10
2019-03-27T11:57:25.481Z,306.69
2019-03-27T11:58:25.795Z,306.77
2019-03-27T11:59:26.159Z,306.21
2019-03-27T12:00:26.494Z,307.08
2019-03-27T12:01:38.663Z,306.18
2019-03-27T12:02:28.173Z,306.56
2019-03-27T12:03:27.496Z,306.62
2019-03-27T12:04:27.888Z,306.44
2019-03-27T12:05:28.204Z,306.17
2019-03-27T12:06:28.524Z,306.22
2019-03-27T12:07:28.857Z,306.83
2019-03-27T12:08:29.179Z,306.15
2019-03-27T12:09:29.500Z,306.30
2019-03-27T12:10:30.100Z,306.56
2019-03-27T12:11:30.446Z,306.28
2019-03-27T12:12:30.828Z,306.39
2019-03-27T12:13:31.231Z,306.18
2019-03-27T12:14:31.430Z,306.54
2019-03-27T12:15:31.821Z,306.35
2019-03-27T12:16:32.140Z,306.36
2019-03-27T12:17:32.466Z,306.76
2019-03-27T12:18:32.790Z,306.80
2019-03-27T12:19:33.123Z,306.17
2019-03-27T12:20:33.466Z,306.34
2019-03-27T12:21:33.955Z,306.68
2019-03-27T12:22:34.161Z,306.89
2019-03-27T12:23:34.484Z,306.38
2019-03-27T12:24:34.818Z,306.37
2019-03-27T12:25:35.144Z,306.06
2019-03-27T12:26:35.508Z,306.21
2019-03-27T12:27:35.845Z,305.69
2019-03-27T12:28:36.164Z,305.95
2019-03-27T12:29:36.534Z,306.28
2019-03-27T12:30:36.833Z,306.55
2019-03-27T12:31:37.167Z,306.17
2019-03-27T12:32:37.540Z,306.36
2019-03-27T12:33:37.852Z,306.13
2019-03-27T12:34:38.193Z,306.00
2019-03-27T12:35:38.549Z,306.16
2019-03-27T12:36:38.843Z,305.83
2019-03-27T12:37:39.298Z,306.31
2019-03-27T12:38:39.540Z,306.18
2019-03-27T12:39:40.617Z,306.23
2019-03-27T12:40:40.264Z,306.19
2019-03-27T12:41:40.563Z,305.55
2019-03-27T12:42:40.873Z,306.30
2019-03-27T12:43:41.241Z,306.26
2019-03-27T12:44:41.644Z,306.08
2019-03-27T12:45:41.962Z,305.72
2019-03-27T12:46:42.345Z,305.72
2019-03-27T12:47:42.584Z,305.78
2019-03-27T12:48:42.942Z,305.71
2019-03-27T12:49:43.279Z,306.11
2019-03-27T12:50:44.331Z,306.02
2019-03-27T12:51:43.954Z,306.58
2019-03-27T12:52:44.276Z,305.95
2019-03-27T12:53:44.628Z,305.95
2019-03-27T12:54:45.110Z,305.36
2019-03-27T12:55:45.356Z,306.22